Piplani, Dharam Paul
United StatesManBorn 19481997 – 2009Runner id 18621
Events
131
126 race dates
Best pace
9.760
km/h · 2004
Best finish
10th
of 58 · 2005
Distance raced
11,395
km · splits not double-counted
Pace over time
km/h · higher is faster
Pace over time: 129 races and 2 splits from 1997 to 2009, ranging from 2.88 to 11.54 kilometres per hour, where higher is faster. A second, age-graded series is drawn above it; the gap between the two is the age credit.
- Actual pace
- Age-graded pace
- Split of a race already plotted
Results
| Date | Event | Distance | Result | Pace km/h | Placing |
|---|---|---|---|---|---|
| 1997-12-13 | 50km | 7:56:11 h | 6.300 | 448/472 | |
| 1998-03-21 | 50km | 8:26:31 h | 5.923 | 212/222 | |
| 1999-05-08 | 50mi | 11:42:29 h | 6.873 | 327/346 | |
| 1999-07-17 | Elkhorn Mountain Endurance Run 50 KmUnited States | 50km | 6:43:21 h | 7.438 | 37/62 |
| 1999-12-04 | 50mi | 13:58:05 h | 5.761 | 47/47 | |
| 2000-04-01 | 50km | 6:05:57 h | 8.198 | 100/122 | |
| 2000-04-04 | Marathon des SablesMorocco | 220km | 2d 15:30:35 h | 3.464 | 535/570 |
| 2000-06-16 | Comrades Marathon - Up RunSouth Africa | 87km | 11:52:12 h | 7.329 | 18916/20027 |
| 2000-07-02 | 52.4mi | 14:23:09 h | 5.862 | 7/8 | |
| 2000-08-12 | 8h | 63.601 km | 7.950 | 37/108 | |
| 2000-12-30 | 50km | 8:52:04 h | 5.638 | 70/76 | |
| 2001-01-06 | Phoenix National Trail 50 Mile Endurance RunUnited States | 50mi | 13:30:00 h | 5.961 | 43/45 |
| 2001-01-27 | 50km | 7:16:50 h | 6.868 | 116/140 | |
| 2001-02-10 | 50km | 7:12:09 h | 6.942 | 130/141 | |
| 2001-03-17 | 50km | 8:25:20 h | 5.937 | 53/71 | |
| 2001-05-05 | 40mi | 8:40:02 h | 7.427 | 33/56 | |
| 2001-06-16 | 100mi | 28:29:53 h | 5.647 | 44/52 | |
| 2001-06-30 | 50mi | 12:27:49 h | 6.456 | 14/15 | |
| 2001-07-14 | 34.3mi | 7:51:39 h | 7.022 | 14/18 | |
| 2001-07-21 | 100mi | 28:16:36 h | 5.691 | 163/174 | |
| 2001-07-21 | Big Butt 50 kmUnited States | 50km | 6:20:02 h | 7.894 | 20/26 |
| 2001-07-28 | Minnesota Voyageur Trail 50 Mile UltraUnited States | 50mi | 12:48:22 h | 6.284 | 85/88 |
| 2001-08-11 | Mt. Hood 50 Mile Trail RunUnited States | 50mi | 12:12:36 h | 6.590 | 42/49 |
| 2001-10-06 | 40mi | 8:35:01 h | 7.500 | 8/11 | |
| 2001-11-03 | 50km | 5:25:30 h | 9.217 | 83/138 | |
| 2001-11-17 | 50mi | 10:46:25 h | 7.469 | 443/818 | |
| 2001-11-18 | 50km | 8:18:38 h | 6.016 | 27/27 | |
| 2001-12-15 | 50km | 6:13:48 h | 8.026 | 14/15 | |
| 2001-12-31 | 24h | 126.800 km | 5.283 | 21/45 | |
| 2002-02-09 | Pemberton Trail 50 kmUnited States | 50km | 6:29:54 h | 7.694 | 34/39 |
| 2002-03-16 | 50mi | 14:28:22 h | 5.560 | 44/44 | |
| 2002-03-23 | 50km | 6:42:35 h | 7.452 | 206/258 | |
| 2002-03-23 | San Juan Trail 50 KmUnited States | 50km | 7:47:16 h | 6.420 | 64/78 |
| 2002-04-06 | 28.7mi | 5:35:48 h | 8.253 | 47/71 | |
| 2002-05-19 | Ohlone 50K Wilderness RunUnited States | 50km | 8:59:52 h | 5.557 | 98/100 |
| 2002-06-01 | Shadow of the Giants 50KUnited States | 50km | 7:31:41 h | 6.642 | 65/84 |
| 2002-07-13 | 50km | 10:48:00 h | 4.630 | 32/34 | |
| 2003-02-08 | 50km | 7:19:00 h | 6.834 | 48/49 | |
| 2003-04-05 | 100mi | 28:24:35 h | 5.665 | 61/78 | |
| 2003-06-07 | Shadow of the Giants 50KUnited States | 50km | 7:46:04 h | 6.437 | 75/87 |
| 2003-07-26 | Baldy Peaks 50KUnited States | 50km | 10:39:39 h | 4.690 | 50/67 |
| 2003-08-03 | Skyline 50k Endurance RunUnited States | 50km | 7:26:43 h | 6.716 | 151/162 |
| 2003-08-09 | 50km | 8:14:04 h | 6.072 | 34/37 | |
| 2003-12-06 | Sunmart Texas Trails 50 KmUnited States | 50km | 6:39:49 h | 7.503 | 406/618 |
| 2003-12-20 | 50km | 7:44:50 h | 6.454 | 27/32 | |
| 2003-12-27 | 50km | 7:32:49 h | 6.625 | 202/229 | |
| 2003-12-29 | 72h | 249.000 km | 3.458 | 5/10 | |
| 2004-01-03 | 50km | 8:22:00 h | 5.976 | 19/23 | |
| 2004-02-07 | 100mi | 29:30:29 h | 5.454 | 104/112 | |
| 2004-03-13 | Crown King Scramble 50KUnited States | 50km | 8:33:23 h | 5.844 | 119/148 |
| 2004-04-03 | 100mi | 29:33:50 h | 5.444 | 98/98 | |
| 2004-04-17 | 50km | 7:10:49 h | 6.964 | 32/38 | |
| 2004-06-12 | Holcomb Valley 33 MileUnited States | 33mi | 8:58:27 h | 5.918 | 74/85 |
| 2004-07-17 | 50km | 8:06:40 h | 6.164 | 26/26 | |
| 2004-08-07 | 50km | 8:38:56 h | 5.781 | 22/29 | |
| 2004-08-13 | 24h | 103.223 km | 4.301 | 25/47 | |
| 2004-10-16 | 50km | 7:49:55 h | 6.384 | 16/16 | |
| 2004-10-30 | 100mi | 29:50:25 h | 5.393 | 71/71 | |
| 2004-11-06 | Just Another Mad Dog 50 KmUnited States | 50km | 5:07:22 h | 9.760 | 6/8 |
| 2004-11-26 | 48h | 213.994 km | 4.458 | 5/11 | |
| 2004-12-04 | OTHTC High Desert 50K UltraUnited States | 50km | 7:01:17 h | 7.121 | 164/186 |
| 2004-12-04 | 50km | 6:40:31 h | 7.490 | 361/620 | |
| 2004-12-18 | Huff 50K Trail RunUnited States | 50km | 6:58:45 h | 7.164 | 192/219 |
| 2004-12-29 | 72h | 270.500 km | 3.757 | 11/23 | |
| 2005-04-02 | 50mi | 13:00:03 h | 6.189 | 86/110 | |
| 2005-04-16 | 50km | 7:40:29 h | 6.515 | 38/42 | |
| 2005-04-23 | 50km | 6:51:46 h | 7.286 | 38/41 | |
| 2005-04-24 | 50km | 7:06:31 h | 7.034 | 15/21 | |
| 2005-06-04 | Shadow of the Giants 50KUnited States | 50km | 8:03:16 h | 6.208 | 83/88 |
| 2005-07-16 | Midnight Mountain 50KUnited States | 50km | 10:40:19 h | 4.685 | 50/50 |
| 2005-07-30 | 24h | 137.309 km | 5.721 | 10/58 | |
| 2005-08-27 | Bulldog 50k Ultra RunUnited States | 50km | 8:08:18 h | 6.144 | 106/122 |
| 2005-10-15 | 100mi | 29:59:38 h | 5.366 | 47/48 | |
| 2005-10-22 | 50mi | 12:14:36 h | 6.572 | 23/23 | |
| 2005-11-12 | 24h | 131.370 km | 5.474 | 57/83 | |
| 2005-11-19 | 50mi | 13:39:00 h | 5.895 | 936/951 | |
| 2005-11-25 | 48h | 187.826 km | 3.913 | 2/3 | |
| 2005-12-03 | Sunmart Texas Trails 50 KmUnited States | 50km | 6:55:55 h | 7.213 | 364/577 |
| 2005-12-29 | 72h | 272.000 km | 3.778 | 14/32 | |
| 2005-12-29 | Across the Years, 72h - 48h SplitUnited StatesSplit of the race above; not counted again in the distance total | 48h | 181.000 km | 3.771 | 15/32 |
| 2005-12-29 | Across the Years, 72h - 24h SplitUnited StatesSplit of the race above; not counted again in the distance total | 24h | 99.000 km | 4.125 | 19/32 |
| 2006-02-12 | Manasota Track Club 50KUnited States | 50km | 8:09:30 h | 6.129 | 29/29 |
| 2006-02-18 | 50km | 6:32:15 h | 7.648 | 28/31 | |
| 2006-03-04 | Old Pueblo 50 Mile Endurance RunUnited States | 50mi | 15:16:32 h | 5.268 | 105/107 |
| 2006-03-18 | 50km | 9:26:36 h | 5.295 | 125/133 | |
| 2006-05-13 | PCT 50 Mile Trail RunUnited States | 50mi | 14:55:27 h | 5.392 | 45/45 |
| 2006-05-26 | 100mi | 29:35:58 h | 5.437 | 29/31 | |
| 2006-06-03 | 100mi | 29:31:00 h | 5.452 | 48/48 | |
| 2006-06-16 | 70.5mi | 21:32:08 h | 5.268 | 65/68 | |
| 2006-07-08 | 50km | 8:00:59 h | 6.237 | 72/89 | |
| 2006-08-12 | 50km | 8:31:32 h | 5.865 | 112/136 | |
| 2006-08-26 | Bulldog 50k Ultra RunUnited States | 50km | 7:22:03 h | 6.787 | 111/128 |
| 2006-11-10 | 100mi | 26:38:40 h | 6.040 | 69/120 | |
| 2006-11-25 | Big Dog Ultra Trail RunUnited States | 50km | 6:51:34 h | 7.289 | 14/22 |
| 2006-12-03 | 50km | 6:44:57 h | 7.408 | 162/198 | |
| 2006-12-09 | 50km | 6:35:34 h | 7.584 | 250/517 | |
| 2006-12-29 | 72h | 295.000 km | 4.097 | 11/35 | |
| 2007-02-03 | 100mi | 29:26:03 h | 5.468 | 160/168 | |
| 2007-02-17 | Iron Horse 100 Mile Endurance RunUnited States | 100mi | 23:56:38 h | 6.721 | 3/3 |
| 2007-02-24 | Sin City Runs Dead Presidents 12 Hour Ultra RunUnited States | 12h | 85.166 km | 7.097 | 7/11 |
| 2007-03-17 | 50km | 8:29:35 h | 5.887 | 110/147 | |
| 2007-03-31 | 100mi | 27:00:26 h | 5.959 | 64/108 | |
| 2007-04-21 | Leona Divide 50 Mile RunUnited States | 50mi | 11:54:34 h | 6.757 | 119/137 |
| 2007-04-28 | Capitol Peak 55KUnited States | 55km | 8:38:47 h | 6.361 | 26/30 |
| 2007-05-05 | 24h | 100.391 km | 4.183 | 29/38 | |
| 2007-05-19 | Watershed Preserve 12 Hr Trail RaceUnited States | 12h | 84.812 km | 7.068 | 19/56 |
| 2007-06-02 | 100mi | 28:58:54 h | 5.553 | 55/56 | |
| 2007-06-09 | Lake Youngs UltraUnited States | 28.8mi | 6:27:00 h | 7.186 | 62/62 |
| 2007-07-07 | Let's Climb a MountainUnited States | 34.3mi | 7:51:27 h | 7.025 | 32/32 |
| 2007-10-15 | 72mi | 22:36:00 h | 5.127 | 19/19 | |
| 2008-05-24 | Red Mountain 50KUnited States | 50km | 7:12:08 h | 6.942 | 37/42 |
| 2008-05-31 | Shadow of the Giants 50KUnited States | 50km | 9:59:26 h | 5.005 | 92/93 |
| 2008-06-07 | Blanchard Mountain Trail UltraUnited States | 50km | 9:00:00 h | 5.556 | 9/9 |
| 2008-06-14 | Hawthorn Half Day RunUnited States | 12h | 68.879 km | 5.740 | 28/41 |
| 2008-08-23 | 100mi | 28:37:51 h | 5.621 | 72/83 | |
| 2008-09-06 | 50km | 7:28:34 h | 6.688 | 34/36 | |
| 2008-10-11 | 50mi | 12:15:16 h | 6.566 | 139/155 | |
| 2008-10-18 | 100mi | 28:22:00 h | 5.673 | 7/8 | |
| 2008-11-08 | 100mi | 27:32:48 h | 5.842 | 67/97 | |
| 2008-11-14 | 48h | 173.466 km | 3.614 | 13/27 | |
| 2008-11-23 | 50km | 8:11:33 h | 6.103 | 57/60 | |
| 2008-12-31 | 24h | 116.493 km | 4.854 | 14/35 | |
| 2009-02-07 | 100mi | 28:52:08 h | 5.575 | 152/162 | |
| 2009-02-14 | 50km | 6:43:26 h | 7.436 | 125/147 | |
| 2009-02-21 | 50km | 7:08:10 h | 7.007 | 44/52 | |
| 2009-03-08 | 50mi | 12:09:05 h | 6.622 | 47/47 | |
| 2009-03-14 | San Juan Trail 50 KmUnited States | 50km | 8:19:53 h | 6.001 | 70/74 |
| 2009-03-21 | 24h | 106.217 km | 4.426 | 16/49 | |
| 2009-05-09 | Ayala Park 12h RunUnited States | 12h | 84.329 km | 7.027 | 2/3 |
| 2009-05-16 | 100mi | 30:18:22 h | 5.310 | 30/37 | |
| 2009-05-23 | 24h | 69.202 km | 2.883 | 24/27 |